Time;durP1;ratioP1;P1;durP2;ratioP2;P2;SDS_P1;SDS_P2;PMS_P1;PMS_P2;Temp;Humidity;BMP_temperature;BMP_pressure;BME280_temperature;BME280_humidity;BME280_pressure;Samples;Min_cycle;Max_cycle;Signal;HPM_P1;HPM_P2
2023/03/26 00:02:06;;;;;;;4.40;2.10;;;;;;;11.34;49.90;98056.49;223639;183;138560;-82
2023/03/26 00:07:09;;;;;;;2.70;1.60;;;;;;;11.24;50.27;98065.38;223724;183;136374;-81
2023/03/26 00:12:13;;;;;;;4.20;1.80;;;;;;;11.13;50.78;98065.87;223740;182;145691;-81
2023/03/26 00:17:16;;;;;;;3.50;1.70;;;;;;;11.06;51.14;98072.81;223648;182;140838;-81
2023/03/26 00:22:22;;;;;;;2.40;1.50;;;;;;;11.01;51.42;98071.05;223764;183;137202;-82
2023/03/26 00:27:26;;;;;;;3.00;1.60;;;;;;;10.99;51.50;98061.26;223638;182;145995;-79
2023/03/26 00:32:30;;;;;;;2.90;1.40;;;;;;;11.00;51.74;98050.39;223583;183;138504;-78
2023/03/26 00:37:33;;;;;;;2.50;1.50;;;;;;;11.02;51.88;98051.45;223692;183;137303;-78
2023/03/26 00:42:37;;;;;;;3.00;1.50;;;;;;;10.98;52.03;98048.46;223598;183;145161;-78
2023/03/26 00:47:42;;;;;;;3.30;1.60;;;;;;;10.98;52.23;98050.20;222392;181;139021;-79
2023/03/26 00:52:45;;;;;;;2.90;1.70;;;;;;;10.94;52.42;98043.41;223381;181;137240;-78
2023/03/26 00:57:49;;;;;;;3.40;1.80;;;;;;;10.92;52.65;98043.56;223710;182;146448;-78
2023/03/26 01:02:54;;;;;;;5.80;1.80;;;;;;;10.89;52.77;98038.52;223665;182;138877;-79
2023/03/26 01:07:59;;;;;;;4.00;1.70;;;;;;;10.86;53.03;98037.15;223710;181;138328;-82
2023/03/26 01:13:03;;;;;;;3.00;1.60;;;;;;;10.84;53.20;98036.92;223836;181;147894;-81
2023/03/26 01:18:08;;;;;;;3.50;1.60;;;;;;;10.86;53.23;98042.48;223702;181;138590;-81
2023/03/26 01:23:18;;;;;;;2.20;1.40;;;;;;;10.87;53.30;98045.25;223727;182;136719;-81
2023/03/26 01:28:24;;;;;;;2.80;1.60;;;;;;;10.87;53.39;98036.31;223518;181;145575;-80
2023/03/26 01:33:48;;;;;;;3.00;1.80;;;;;;;10.90;53.47;98037.55;223577;181;139241;-81
2023/03/26 01:39:09;;;;;;;3.20;1.20;;;;;;;10.93;53.43;98039.75;223750;181;137249;-81
2023/03/26 01:44:41;;;;;;;2.70;1.40;;;;;;;10.89;53.53;98037.05;223671;181;145665;-80
2023/03/26 01:49:46;;;;;;;2.90;1.30;;;;;;;10.83;53.51;98038.93;223716;182;257618;-81
2023/03/26 01:54:50;;;;;;;2.90;1.20;;;;;;;10.79;54.55;98030.60;223789;182;137359;-81
2023/03/26 01:59:56;;;;;;;2.40;1.20;;;;;;;10.71;55.55;98026.31;223660;181;144998;-80
2023/03/26 02:05:22;;;;;;;1.50;1.10;;;;;;;10.59;56.08;98022.43;223772;181;138408;-80
2023/03/26 02:10:34;;;;;;;2.50;1.40;;;;;;;10.51;56.39;98022.91;223692;181;136230;-80
2023/03/26 02:15:39;;;;;;;3.00;1.10;;;;;;;10.49;56.61;98017.15;223708;181;145867;-82
2023/03/26 02:20:43;;;;;;;3.30;1.40;;;;;;;10.50;56.58;98010.89;223646;181;138041;-81
2023/03/26 02:25:47;;;;;;;1.80;1.00;;;;;;;10.50;56.64;98012.15;223646;181;136412;-79
2023/03/26 02:30:56;;;;;;;2.90;1.10;;;;;;;10.50;56.58;98005.61;223730;182;145812;-80
2023/03/26 02:36:03;;;;;;;3.50;1.40;;;;;;;10.48;56.58;98001.61;223673;182;138162;-83
2023/03/26 02:41:07;;;;;;;3.30;1.30;;;;;;;10.45;56.78;98002.05;223690;181;137284;-82
2023/03/26 02:52:52;;;;;;;2.20;1.20;;;;;;;10.47;56.93;98013.65;223925;181;138761;-82
2023/03/26 02:57:56;;;;;;;3.70;1.30;;;;;;;10.50;57.04;98010.70;223768;181;137771;-82
2023/03/26 03:03:08;;;;;;;3.80;1.40;;;;;;;10.49;57.02;98013.29;223728;181;145786;-83
2023/03/26 03:08:31;;;;;;;2.20;1.30;;;;;;;10.50;56.79;98010.87;223706;181;138892;-81
2023/03/26 03:14:12;;;;;;;2.00;1.30;;;;;;;10.57;56.82;98013.00;223503;181;136831;-81
2023/03/26 03:19:17;;;;;;;2.10;1.40;;;;;;;10.66;56.53;98012.64;223458;181;147389;-81
2023/03/26 03:24:25;;;;;;;3.00;1.30;;;;;;;10.69;56.56;98013.65;223619;181;139831;-78
2023/03/26 03:29:29;;;;;;;4.80;1.30;;;;;;;10.72;56.62;98016.10;223710;181;136662;-77
2023/03/26 03:34:38;;;;;;;2.20;1.30;;;;;;;10.70;56.72;98015.52;223742;182;145164;-76
2023/03/26 03:46:06;;;;;;;3.00;1.50;;;;;;;10.75;56.97;98018.17;223842;181;136472;-75
2023/03/26 03:51:19;;;;;;;2.80;1.30;;;;;;;10.75;57.10;98020.80;223773;181;145421;-76
2023/03/26 03:56:26;;;;;;;4.40;1.50;;;;;;;10.74;57.11;98024.09;223076;181;138576;-78
2023/03/26 04:01:47;;;;;;;1.40;1.10;;;;;;;10.74;57.18;98024.05;223766;181;137099;-77
2023/03/26 04:06:58;;;;;;;3.70;1.60;;;;;;;10.73;57.60;98017.42;223644;181;145116;-74
2023/03/26 04:12:09;;;;;;;2.70;1.40;;;;;;;10.64;58.14;98005.87;223742;181;139098;-75
2023/03/26 04:17:20;;;;;;;21.80;14.80;;;;;;;10.55;58.27;98011.70;223625;181;136539;-74
2023/03/26 04:22:33;;;;;;;3.80;1.80;;;;;;;10.51;57.89;98012.25;223520;181;157019;-73
2023/03/26 04:27:40;;;;;;;3.40;1.50;;;;;;;10.55;57.70;98009.24;223718;181;138897;-72
2023/03/26 04:33:05;;;;;;;2.70;1.30;;;;;;;10.55;57.29;97999.34;223688;181;136870;-72
2023/03/26 04:38:15;;;;;;;3.90;1.70;;;;;;;10.61;56.86;97988.77;223725;182;147961;-71
2023/03/26 04:43:21;;;;;;;3.60;1.60;;;;;;;10.67;56.32;97986.68;223802;182;138379;-72
2023/03/26 04:48:39;;;;;;;2.90;1.30;;;;;;;10.65;56.22;97980.79;223779;181;136644;-72
2023/03/26 04:53:58;;;;;;;4.70;3.60;;;;;;;10.70;55.99;97976.89;223221;182;147558;-72
2023/03/26 04:59:06;;;;;;;8.30;4.30;;;;;;;10.79;56.26;97975.91;220784;182;139765;-70
2023/03/26 05:04:14;;;;;;;2.90;1.70;;;;;;;10.85;55.86;97977.26;223660;182;137041;-71
2023/03/26 05:09:18;;;;;;;2.00;1.10;;;;;;;10.87;55.86;97981.52;223624;181;146841;-71
2023/03/26 05:21:05;;;;;;;2.70;1.50;;;;;;;10.81;56.41;97986.97;223879;181;137606;-73
2023/03/26 05:26:10;;;;;;;2.90;1.40;;;;;;;10.88;56.36;97977.88;223868;181;147074;-73
2023/03/26 05:31:17;;;;;;;5.00;1.80;;;;;;;10.93;56.22;97977.31;223688;181;138264;-69
2023/03/26 05:36:22;;;;;;;2.60;1.40;;;;;;;10.98;56.26;97975.89;223667;181;137248;-70
2023/03/26 05:41:35;;;;;;;4.50;1.60;;;;;;;10.98;56.18;97976.40;223670;182;147666;-73
2023/03/26 05:46:40;;;;;;;85.00;59.80;;;;;;;11.03;56.03;97974.88;223638;181;139146;-71
2023/03/26 05:51:47;;;;;;;3.50;1.80;;;;;;;11.11;55.78;97977.06;223728;181;138321;-74
2023/03/26 05:57:10;;;;;;;4.10;2.00;;;;;;;11.17;55.42;97979.16;223169;181;148041;-75
2023/03/26 06:02:34;;;;;;;4.70;1.40;;;;;;;11.13;55.45;97982.58;223620;181;138900;-74
2023/03/26 06:07:56;;;;;;;2.60;1.40;;;;;;;11.20;55.18;97984.41;223667;181;137112;-73
2023/03/26 06:13:06;;;;;;;3.10;1.50;;;;;;;11.25;55.23;97987.88;221696;181;147047;-74
2023/03/26 06:18:13;;;;;;;2.40;1.60;;;;;;;11.29;54.75;97987.73;223628;182;138004;-73
2023/03/26 06:23:53;;;;;;;3.90;1.60;;;;;;;11.32;54.76;97985.67;223683;218;131988;-75
2023/03/26 06:29:29;;;;;;;3.90;1.50;;;;;;;11.32;54.78;97984.08;223616;181;147611;-74
2023/03/26 06:34:32;;;;;;;2.50;1.10;;;;;;;11.31;54.75;97990.90;223700;181;138327;-71
2023/03/26 06:46:03;;;;;;;3.40;1.30;;;;;;;11.37;54.62;97993.98;223841;182;147459;-70
2023/03/26 06:51:26;;;;;;;3.80;1.40;;;;;;;11.38;54.37;97992.08;223637;181;138722;-73
2023/03/26 06:56:54;;;;;;;2.30;1.40;;;;;;;11.41;54.16;97987.75;223785;181;138239;-73
2023/03/26 07:02:18;;;;;;;4.10;1.50;;;;;;;11.41;54.15;97991.67;223748;181;146767;-72
2023/03/26 07:07:40;;;;;;;13.20;2.90;;;;;;;11.43;54.28;97987.13;222800;181;138618;-74
2023/03/26 07:12:52;;;;;;;6.20;1.60;;;;;;;11.50;53.24;97984.58;223735;181;136869;-75
2023/03/26 07:18:35;;;;;;;3.70;1.40;;;;;;;11.55;52.58;97986.95;223701;182;148033;-74
2023/03/26 07:23:42;;;;;;;5.70;1.10;;;;;;;11.51;51.29;97986.59;223781;181;139951;-74
2023/03/26 07:29:38;;;;;;;3.80;1.20;;;;;;;11.53;51.43;97983.20;223726;181;137491;-74
2023/03/26 07:41:39;;;;;;;3.80;1.10;;;;;;;11.61;51.30;97969.39;223687;181;140359;-74
2023/03/26 07:47:34;;;;;;;5.70;1.20;;;;;;;11.73;50.80;97972.38;223561;183;136725;-73
2023/03/26 07:53:00;;;;;;;5.50;1.30;;;;;;;11.83;49.98;97969.67;223788;182;147925;-75
2023/03/26 07:59:18;;;;;;;4.60;1.70;;;;;;;11.89;50.13;97959.32;223573;181;138812;-74
2023/03/26 08:04:56;;;;;;;2.60;1.20;;;;;;;12.07;50.17;97952.59;223378;182;137061;-72
2023/03/26 08:10:45;;;;;;;48.90;36.70;;;;;;;12.22;49.51;97951.98;223510;181;147644;-71
2023/03/26 08:15:59;;;;;;;4.00;1.40;;;;;;;12.33;49.47;97952.33;222822;181;138808;-71
2023/03/26 08:21:12;;;;;;;2.60;1.10;;;;;;;12.39;48.36;97952.52;223619;181;137073;-72
2023/03/26 08:26:44;;;;;;;4.70;1.00;;;;;;;12.45;47.66;97946.14;223761;181;147447;-71
2023/03/26 08:31:48;;;;;;;6.90;1.50;;;;;;;12.49;47.72;97952.35;223685;181;141352;-71
2023/03/26 08:36:52;;;;;;;5.20;1.60;;;;;;;12.50;47.90;97948.36;223803;182;136455;-71
2023/03/26 08:42:12;;;;;;;4.50;1.60;;;;;;;12.43;47.79;97946.59;223756;181;147629;-72
2023/03/26 08:47:54;;;;;;;3.50;1.40;;;;;;;12.40;47.78;97953.64;223174;181;139736;-69
2023/03/26 08:53:00;;;;;;;3.30;1.30;;;;;;;12.40;47.44;97947.60;223575;181;136784;-69
2023/03/26 08:58:44;;;;;;;4.50;1.20;;;;;;;12.42;47.56;97947.99;223727;181;146928;-70
2023/03/26 09:04:02;;;;;;;11.30;7.40;;;;;;;12.40;47.56;97953.64;223602;182;139566;-71
2023/03/26 09:09:24;;;;;;;3.30;1.30;;;;;;;12.41;47.38;97947.19;223685;181;137471;-70
2023/03/26 09:14:46;;;;;;;4.20;1.10;;;;;;;12.50;47.12;97936.89;222684;181;148269;-71
2023/03/26 09:20:22;;;;;;;3.20;1.20;;;;;;;12.50;46.97;97934.64;223743;181;138215;-72
2023/03/26 09:25:54;;;;;;;3.40;1.30;;;;;;;12.58;46.60;97928.41;223292;182;137799;-73
2023/03/26 09:31:35;;;;;;;2.50;0.90;;;;;;;12.62;46.30;97925.77;223796;183;147164;-71
2023/03/26 09:36:53;;;;;;;2.80;1.40;;;;;;;12.61;45.93;97926.90;223706;181;139031;-73
2023/03/26 09:42:18;;;;;;;4.60;1.10;;;;;;;12.67;46.33;97924.96;223680;181;137163;-72
2023/03/26 09:47:52;;;;;;;1.90;1.40;;;;;;;12.76;45.94;97923.23;223789;181;147528;-72
2023/03/26 09:52:56;;;;;;;2.30;1.00;;;;;;;12.80;45.82;97927.38;223784;181;138418;-72
2023/03/26 09:58:39;;;;;;;6.60;1.40;;;;;;;12.79;45.59;97924.59;223674;182;136726;-70
2023/03/26 10:03:51;;;;;;;2.70;1.30;;;;;;;12.86;44.72;97915.64;223604;181;147350;-72
2023/03/26 10:09:32;;;;;;;2.20;0.90;;;;;;;12.91;44.67;97917.31;223609;181;140084;-69
2023/03/26 10:14:59;;;;;;;3.50;1.10;;;;;;;12.92;44.92;97914.02;223677;181;138639;-69
2023/03/26 10:20:21;;;;;;;4.20;1.30;;;;;;;12.97;44.99;97911.56;223780;181;148682;-70
2023/03/26 10:25:30;;;;;;;5.20;1.60;;;;;;;13.22;44.96;97905.63;223834;181;138910;-69
2023/03/26 10:30:57;;;;;;;2.90;1.30;;;;;;;13.45;44.01;97905.27;221389;181;137451;-71
2023/03/26 10:36:22;;;;;;;4.30;1.10;;;;;;;13.53;43.83;97896.41;223674;181;148206;-71
2023/03/26 10:41:35;;;;;;;3.10;0.90;;;;;;;13.55;43.09;97888.58;223744;181;139461;-70
2023/03/26 10:46:47;;;;;;;1.40;0.80;;;;;;;13.50;43.17;97890.58;223753;182;137183;-70
2023/03/26 10:51:59;;;;;;;2.50;0.90;;;;;;;13.51;42.98;97887.42;223711;181;148261;-71
2023/03/26 10:57:17;;;;;;;36.90;25.80;;;;;;;13.78;43.33;97879.83;223756;181;140672;-70
2023/03/26 11:02:30;;;;;;;3.30;1.00;;;;;;;14.19;42.50;97878.02;223788;181;137541;-71
2023/03/26 11:08:08;;;;;;;6.20;1.20;;;;;;;14.16;41.74;97876.88;223602;181;147468;-71
2023/03/26 11:13:24;;;;;;;3.40;1.00;;;;;;;13.94;42.14;97870.81;223613;181;139188;-71
2023/03/26 11:19:03;;;;;;;2.30;1.10;;;;;;;14.01;42.18;97868.00;223689;181;137384;-71
2023/03/26 11:24:37;;;;;;;3.20;0.90;;;;;;;14.13;41.96;97862.58;223706;181;147590;-70
2023/03/26 11:30:04;;;;;;;2.80;1.00;;;;;;;14.07;41.41;97863.67;223666;181;139541;-70
2023/03/26 11:35:51;;;;;;;3.40;1.00;;;;;;;13.95;41.26;97860.89;223646;181;137808;-71
2023/03/26 11:40:56;;;;;;;1.70;0.80;;;;;;;13.76;41.84;97859.84;223150;186;147761;-71
2023/03/26 11:46:23;;;;;;;1.80;0.80;;;;;;;13.65;41.77;97860.71;223567;181;138972;-71
2023/03/26 11:51:35;;;;;;;3.20;0.80;;;;;;;13.61;41.93;97866.91;223664;181;137059;-71
2023/03/26 11:56:44;;;;;;;2.80;1.30;;;;;;;13.49;43.81;97866.85;223706;181;147436;-70
2023/03/26 12:02:13;;;;;;;3.20;1.00;;;;;;;13.43;46.02;97863.74;223695;181;138837;-70
2023/03/26 12:07:32;;;;;;;5.00;1.10;;;;;;;13.52;46.84;97859.24;223666;181;136701;-71
2023/03/26 12:12:39;;;;;;;2.20;1.10;;;;;;;13.82;46.76;97846.57;223680;181;148239;-71
2023/03/26 12:17:44;;;;;;;4.40;1.20;;;;;;;13.86;46.63;97843.32;222452;181;138713;-73
2023/03/26 12:22:50;;;;;;;;;;;;;;;13.92;46.25;97836.89;223742;182;139987;-70
2023/03/26 12:28:16;;;;;;;8.20;3.30;;;;;;;13.91;45.53;97839.84;223755;182;147782;-72
2023/03/26 12:33:32;;;;;;;4.30;1.40;;;;;;;14.02;45.29;97830.98;223696;181;140105;-72
2023/03/26 12:38:38;;;;;;;2.60;1.10;;;;;;;14.08;45.01;97823.65;223783;181;136371;-72
2023/03/26 12:43:50;;;;;;;3.40;1.40;;;;;;;14.10;45.06;97815.92;223637;181;147336;-71
2023/03/26 12:49:15;;;;;;;4.20;2.40;;;;;;;14.16;44.29;97804.43;223777;181;140093;-69
2023/03/26 12:54:34;;;;;;;3.30;1.40;;;;;;;14.31;43.25;97804.05;223770;181;137062;-71
2023/03/26 13:00:12;;;;;;;2.70;1.20;;;;;;;14.68;42.19;97796.80;223729;181;147693;-76
2023/03/26 13:05:27;;;;;;;73.90;50.20;;;;;;;14.55;41.80;97790.91;223289;181;139077;-76
2023/03/26 13:10:52;;;;;;;3.70;1.60;;;;;;;14.82;41.82;97777.67;223576;181;137165;-75
2023/03/26 13:16:01;;;;;;;2.70;1.20;;;;;;;15.09;40.13;97765.02;223564;181;146244;-74
2023/03/26 13:21:12;;;;;;;4.90;1.50;;;;;;;15.40;39.79;97760.95;223471;181;138394;-75
2023/03/26 13:26:47;;;;;;;3.10;1.30;;;;;;;15.40;39.62;97753.64;223610;181;137616;-71
2023/03/26 13:32:28;;;;;;;5.10;1.10;;;;;;;15.33;39.20;97743.40;223285;182;148445;-65
2023/03/26 13:37:53;;;;;;;2.90;1.10;;;;;;;15.25;39.09;97736.88;223419;215;138329;-64
2023/03/26 13:43:11;;;;;;;3.60;1.20;;;;;;;15.23;38.49;97729.56;223455;184;137189;-64
2023/03/26 13:48:21;;;;;;;2.70;1.20;;;;;;;15.13;38.54;97728.67;223365;209;147638;-68
2023/03/26 13:53:40;;;;;;;3.40;1.10;;;;;;;15.00;39.15;97719.27;223502;183;138692;-66
2023/03/26 13:59:00;;;;;;;2.60;1.00;;;;;;;15.07;38.91;97715.14;223508;183;136720;-64
2023/03/26 14:04:19;;;;;;;105.80;83.20;;;;;;;15.21;38.20;97713.34;223684;182;146798;-66
2023/03/26 14:09:30;;;;;;;7.70;4.30;;;;;;;15.31;38.11;97710.24;223498;183;138812;-66
2023/03/26 14:14:47;;;;;;;2.60;1.00;;;;;;;15.15;37.17;97709.17;223491;183;136721;-64
2023/03/26 14:20:16;;;;;;;2.80;0.90;;;;;;;14.97;37.54;97701.36;223570;183;147409;-65
2023/03/26 14:25:26;;;;;;;2.30;0.90;;;;;;;14.98;36.79;97713.08;223617;182;138366;-65
2023/03/26 14:30:41;;;;;;;3.80;1.80;;;;;;;15.00;37.32;97711.54;223502;182;137742;-65
2023/03/26 14:36:08;;;;;;;2.00;0.90;;;;;;;14.95;37.41;97709.60;223554;182;147418;-66
2023/03/26 14:47:12;;;;;;;2.20;0.90;;;;;;;14.98;37.83;97704.29;221418;190;666807;-74
2023/03/26 14:52:37;;;;;;;145.70;97.50;;;;;;;15.04;38.05;97700.68;222021;188;136050;-73
2023/03/26 14:58:20;;;;;;;4.00;1.30;;;;;;;15.14;37.71;97703.39;223441;184;144452;-80
2023/03/26 15:03:47;;;;;;;5.60;1.30;;;;;;;15.08;37.41;97710.05;223782;182;138311;-75
2023/03/26 15:09:14;;;;;;;4.20;1.50;;;;;;;15.02;37.39;97700.45;223719;183;136164;-78
2023/03/26 15:14:42;;;;;;;4.80;1.10;;;;;;;15.01;37.65;97702.05;223631;182;143935;-75
2023/03/26 15:20:05;;;;;;;5.10;1.80;;;;;;;14.99;38.00;97702.19;223616;182;138423;-73
2023/03/26 15:25:45;;;;;;;2.20;1.20;;;;;;;14.92;37.93;97697.07;223679;182;140147;-79
2023/03/26 15:30:54;;;;;;;4.50;1.10;;;;;;;14.80;38.30;97693.56;223793;183;143488;-78
2023/03/26 15:36:15;;;;;;;3.90;1.70;;;;;;;14.75;38.45;97688.38;223696;182;139356;-80
2023/03/26 15:41:26;;;;;;;3.00;1.10;;;;;;;14.72;38.80;97681.05;223621;183;136330;-69
2023/03/26 15:46:36;;;;;;;3.80;1.30;;;;;;;14.66;38.89;97679.65;223643;182;145680;-66
2023/03/26 15:51:48;;;;;;;3.60;1.40;;;;;;;14.63;38.91;97680.17;223687;182;138407;-67
2023/03/26 15:57:00;;;;;;;5.50;1.30;;;;;;;14.64;39.00;97680.27;223650;182;137100;-65
2023/03/26 16:02:15;;;;;;;3.60;1.30;;;;;;;14.61;38.92;97671.20;223665;183;145353;-66
2023/03/26 16:07:47;;;;;;;2.70;1.30;;;;;;;14.59;39.14;97664.92;223693;182;139065;-66
2023/03/26 16:13:20;;;;;;;5.40;1.90;;;;;;;14.60;39.08;97665.41;223748;182;137368;-66
2023/03/26 16:18:34;;;;;;;4.60;1.70;;;;;;;14.61;39.29;97663.86;223599;182;146101;-67
2023/03/26 16:23:41;;;;;;;6.00;3.10;;;;;;;14.62;39.25;97655.38;223721;182;138645;-66
2023/03/26 16:28:52;;;;;;;5.00;1.60;;;;;;;14.63;39.17;97650.84;223696;182;136658;-65
2023/03/26 16:33:58;;;;;;;3.00;1.30;;;;;;;14.63;39.08;97651.72;223568;183;145398;-64
2023/03/26 16:39:04;;;;;;;4.10;1.60;;;;;;;14.60;38.91;97646.66;223649;182;138936;-67
2023/03/26 16:44:09;;;;;;;3.80;1.60;;;;;;;14.60;38.65;97646.34;223666;183;136669;-64
2023/03/26 16:49:46;;;;;;;3.00;1.50;;;;;;;14.56;38.30;97647.44;223714;183;145521;-66
2023/03/26 16:55:42;;;;;;;3.00;1.70;;;;;;;14.51;38.23;97650.11;223580;183;140954;-64
2023/03/26 17:00:47;;;;;;;3.40;1.70;;;;;;;14.45;38.26;97649.25;223531;180;136272;-66
2023/03/26 17:05:55;;;;;;;7.10;1.80;;;;;;;14.42;38.16;97649.55;223593;179;145670;-65
2023/03/26 17:11:12;;;;;;;4.60;2.00;;;;;;;14.40;38.18;97647.23;223568;183;139566;-65
2023/03/26 17:16:33;;;;;;;7.70;2.10;;;;;;;14.34;38.27;97646.24;223442;184;136457;-67
2023/03/26 17:21:54;;;;;;;6.90;3.30;;;;;;;14.28;38.36;97647.89;223607;183;145043;-63
2023/03/26 17:27:24;;;;;;;5.20;2.20;;;;;;;14.17;38.42;97646.81;223484;183;139100;-65
2023/03/26 17:32:54;;;;;;;4.10;1.70;;;;;;;14.11;38.51;97646.75;223418;183;136760;-66
2023/03/26 17:37:58;;;;;;;7.20;2.20;;;;;;;14.07;38.98;97651.27;223603;183;145074;-64
2023/03/26 17:43:07;;;;;;;249.60;191.90;;;;;;;14.00;39.12;97650.31;223478;183;138072;-65
2023/03/26 17:48:20;;;;;;;13.00;7.80;;;;;;;14.05;39.82;97644.27;223494;183;137565;-67
2023/03/26 17:53:34;;;;;;;10.60;3.00;;;;;;;13.97;40.21;97646.75;223602;182;145556;-67
2023/03/26 17:58:46;;;;;;;8.60;2.40;;;;;;;13.83;40.53;97647.42;223544;183;138163;-66
2023/03/26 18:03:54;;;;;;;6.00;2.60;;;;;;;13.66;40.36;97653.84;223459;183;137681;-64
2023/03/26 18:09:44;;;;;;;6.50;2.60;;;;;;;13.66;40.06;97654.95;223500;183;146574;-66
2023/03/26 18:15:34;;;;;;;15.20;3.20;;;;;;;13.62;41.29;97652.63;223510;183;139432;-66
2023/03/26 18:20:45;;;;;;;8.50;2.90;;;;;;;13.41;41.85;97653.42;223059;186;137319;-67
2023/03/26 18:25:57;;;;;;;12.00;2.90;;;;;;;13.24;43.83;97649.33;223602;183;145815;-67
2023/03/26 18:31:15;;;;;;;11.90;3.40;;;;;;;13.07;43.65;97651.64;223488;183;139521;-69
2023/03/26 18:36:19;;;;;;;15.10;3.70;;;;;;;12.97;43.91;97647.91;223514;183;136893;-70
2023/03/26 18:42:53;;;;;;;21.80;14.20;;;;;;;12.97;46.59;97639.51;220807;193;677075;-63
2023/03/26 18:48:04;;;;;;;17.20;4.70;;;;;;;12.96;45.43;97644.09;222995;187;136955;-69
2023/03/26 18:53:17;;;;;;;13.60;3.90;;;;;;;12.82;45.80;97644.68;223029;187;144287;-69
2023/03/26 18:58:29;;;;;;;13.20;3.90;;;;;;;12.75;46.13;97642.50;222944;188;139109;-67
2023/03/26 19:03:35;;;;;;;13.10;3.70;;;;;;;12.70;46.85;97647.98;223590;184;136948;-65
2023/03/26 19:08:42;;;;;;;294.20;215.10;;;;;;;12.65;47.54;97646.64;223600;183;143880;-67
2023/03/26 19:13:58;;;;;;;22.70;8.10;;;;;;;12.60;48.10;97639.81;223742;183;139983;-66
2023/03/26 19:19:06;;;;;;;20.30;5.10;;;;;;;12.59;48.34;97635.81;223603;183;136445;-69
2023/03/26 19:24:11;;;;;;;17.30;5.00;;;;;;;12.57;48.63;97632.61;223495;183;144995;-67
2023/03/26 19:29:24;;;;;;;18.00;5.50;;;;;;;12.52;49.31;97627.18;223611;183;138613;-66
2023/03/26 19:34:34;;;;;;;15.30;6.80;;;;;;;12.47;49.85;97626.45;223560;183;136977;-67
2023/03/26 19:42:49;;;;;;;16.70;7.90;;;;;;;12.42;50.22;97633.13;220811;188;676647;-67
2023/03/26 19:47:56;;;;;;;18.60;9.30;;;;;;;12.36;50.44;97631.59;223729;182;136543;-67
2023/03/26 19:53:27;;;;;;;19.20;8.30;;;;;;;12.30;50.82;97621.74;223678;182;145548;-67
2023/03/26 19:58:31;;;;;;;10.90;4.70;;;;;;;12.22;49.94;97625.16;223696;182;138541;-66
2023/03/26 20:03:41;;;;;;;10.60;5.10;;;;;;;12.36;48.21;97626.77;223713;181;136699;-67
2023/03/26 20:08:49;;;;;;;13.40;5.40;;;;;;;12.49;47.63;97633.73;223656;182;143276;-65
2023/03/26 20:14:37;;;;;;;11.70;6.20;;;;;;;12.59;47.84;97635.29;223504;181;139026;-67
2023/03/26 20:19:42;;;;;;;10.40;5.70;;;;;;;12.61;48.53;97638.20;223774;179;136335;-67
2023/03/26 20:24:50;;;;;;;13.50;5.90;;;;;;;12.54;49.99;97641.64;223685;182;143426;-66
2023/03/26 20:29:54;;;;;;;11.80;5.20;;;;;;;12.42;50.92;97637.36;223622;183;139201;-67
2023/03/26 20:35:29;;;;;;;12.40;5.60;;;;;;;12.33;51.89;97631.68;223717;182;137151;-66
2023/03/26 20:40:43;;;;;;;13.70;5.50;;;;;;;12.20;52.79;97629.63;223627;182;145768;-67
2023/03/26 20:46:13;;;;;;;11.50;6.00;;;;;;;12.02;53.55;97627.58;223616;182;139203;-68
2023/03/26 20:51:47;;;;;;;13.50;5.10;;;;;;;11.95;54.26;97615.55;223597;182;136511;-66
2023/03/26 20:56:56;;;;;;;8.60;4.70;;;;;;;11.86;54.91;97606.95;223700;182;145364;-66
2023/03/26 21:02:03;;;;;;;13.20;5.40;;;;;;;11.75;55.52;97603.84;223600;183;138784;-66
2023/03/26 21:07:09;;;;;;;11.30;5.10;;;;;;;11.74;55.93;97598.08;223747;182;137932;-67
2023/03/26 21:12:59;;;;;;;9.00;4.60;;;;;;;11.69;57.09;97588.02;223797;181;145809;-67
2023/03/26 21:18:04;;;;;;;10.40;5.00;;;;;;;11.54;57.98;97582.23;223714;182;138431;-66
2023/03/26 21:23:23;;;;;;;9.60;5.40;;;;;;;11.44;58.25;97577.95;223737;182;136734;-66
2023/03/26 21:28:35;;;;;;;8.90;5.20;;;;;;;11.39;58.91;97569.89;223739;182;145226;-67
2023/03/26 21:33:48;;;;;;;11.00;5.70;;;;;;;11.32;60.50;97565.95;223639;182;138943;-67
2023/03/26 21:42:53;;;;;;;14.80;5.50;;;;;;;11.22;61.47;97554.05;219532;193;666519;-66
2023/03/26 21:47:57;;;;;;;10.30;5.00;;;;;;;11.17;62.29;97546.09;223748;181;136053;-70
2023/03/26 21:53:02;;;;;;;10.10;5.20;;;;;;;11.13;63.15;97541.65;223792;182;143995;-66
2023/03/26 21:58:35;;;;;;;9.50;4.90;;;;;;;11.05;62.62;97548.02;223632;182;138720;-66
2023/03/26 22:04:04;;;;;;;9.90;4.20;;;;;;;11.01;62.28;97556.96;223768;181;136835;-66
2023/03/26 22:09:12;;;;;;;9.80;3.80;;;;;;;11.03;61.65;97575.05;223624;181;143906;-66
2023/03/26 22:14:24;;;;;;;8.70;3.50;;;;;;;11.10;61.47;97573.39;223719;182;139973;-66
2023/03/26 22:19:28;;;;;;;7.30;3.40;;;;;;;11.05;61.81;97565.23;223856;183;136230;-66
2023/03/26 22:24:33;;;;;;;6.60;2.90;;;;;;;10.98;62.17;97559.67;223759;182;144083;-68
2023/03/26 22:29:36;;;;;;;8.70;3.60;;;;;;;10.91;62.71;97548.10;223690;181;138345;-65
2023/03/26 22:34:40;;;;;;;7.20;3.30;;;;;;;10.81;63.58;97549.06;223735;181;136689;-66
2023/03/26 22:43:07;;;;;;;7.80;3.20;;;;;;;10.67;64.19;97545.67;218937;194;3696507;-66
2023/03/26 22:48:12;;;;;;;5.90;3.10;;;;;;;10.63;64.77;97542.86;222907;188;145449;-66
2023/03/26 22:53:37;;;;;;;7.50;3.40;;;;;;;10.70;65.20;97540.50;222912;188;138965;-66
2023/03/26 22:58:41;;;;;;;8.40;3.60;;;;;;;10.70;65.18;97538.52;223325;187;136265;-66
2023/03/26 23:03:45;;;;;;;7.70;3.70;;;;;;;10.71;65.87;97524.81;223253;185;143926;-68
2023/03/26 23:08:50;;;;;;;7.20;3.10;;;;;;;10.73;66.05;97518.63;223258;186;140895;-67
2023/03/26 23:13:54;;;;;;;7.10;3.70;;;;;;;10.75;66.22;97510.75;223343;186;136422;-69
2023/03/26 23:18:58;;;;;;;5.90;3.60;;;;;;;10.79;66.24;97502.79;223470;183;143426;-67
2023/03/26 23:24:03;;;;;;;6.60;3.30;;;;;;;10.89;65.91;97490.71;223583;184;139179;-67
2023/03/26 23:29:08;;;;;;;6.00;3.70;;;;;;;10.84;65.92;97485.33;223523;184;136655;-67
2023/03/26 23:34:12;;;;;;;8.70;3.70;;;;;;;10.81;66.38;97480.98;223428;184;147414;-69
2023/03/26 23:39:17;;;;;;;4.90;3.30;;;;;;;10.86;66.39;97488.21;223416;184;138784;-68
2023/03/26 23:44:21;;;;;;;6.60;3.90;;;;;;;10.85;66.36;97480.79;223551;184;136806;-68
2023/03/26 23:49:25;;;;;;;5.50;3.40;;;;;;;10.82;66.28;97476.63;223491;184;144973;-67
2023/03/26 23:54:33;;;;;;;6.60;3.50;;;;;;;10.80;66.35;97465.64;223410;184;140472;-66
2023/03/26 23:59:40;;;;;;;8.20;3.00;;;;;;;10.75;66.28;97457.21;223445;184;136512;-66
